Time;durP1;ratioP1;P1;durP2;ratioP2;P2;SDS_P1;SDS_P2;PMS_P1;PMS_P2;Temp;Humidity;BMP_temperature;BMP_pressure;BME280_temperature;BME280_humidity;BME280_pressure;Samples;Min_cycle;Max_cycle;Signal;HPM_P1;HPM_P2
2022/08/08 00:00:52;;;;;;;;;;;18.40;51.20;;;;;;4876366;29;19928;-70
2022/08/08 00:03:20;;;;;;;;;;;18.50;51.30;;;;;;4873813;29;20394;-71
2022/08/08 00:05:51;;;;;;;;;;;18.50;51.60;;;;;;4878387;29;19923;-71
2022/08/08 00:08:19;;;;;;;;;;;18.40;51.70;;;;;;4874366;29;19931;-71
2022/08/08 00:10:49;;;;;;;;;;;18.40;52.00;;;;;;4877342;29;19924;-70
2022/08/08 00:13:20;;;;;;;;;;;18.30;51.80;;;;;;4874178;29;19924;-71
2022/08/08 00:15:50;;;;;;;;;;;18.30;51.60;;;;;;4868647;29;19972;-71
2022/08/08 00:18:20;;;;;;;;;;;18.40;51.70;;;;;;4872609;29;20422;-71
2022/08/08 00:20:51;;;;;;;;;;;18.30;51.60;;;;;;4873131;29;19939;-71
2022/08/08 00:23:21;;;;;;;;;;;18.20;51.60;;;;;;4872025;29;19927;-71
2022/08/08 00:25:49;;;;;;;;;;;18.20;51.50;;;;;;4872194;29;19923;-70
2022/08/08 00:28:18;;;;;;;;;;;18.10;51.40;;;;;;4864069;29;19975;-70
2022/08/08 00:30:50;;;;;;;;;;;18.20;51.30;;;;;;4874887;29;19971;-71
2022/08/08 00:33:18;;;;;;;;;;;18.20;51.40;;;;;;4873447;29;20439;-71
2022/08/08 00:35:48;;;;;;;;;;;18.10;51.30;;;;;;4874002;29;19974;-70
2022/08/08 00:38:24;;;;;;;;;;;18.10;51.50;;;;;;4878335;29;20018;-70
2022/08/08 00:41:18;;;;;;;;;;;18.10;51.40;;;;;;4877607;29;20401;-69
2022/08/08 00:43:49;;;;;;;;;;;18.00;51.50;;;;;;4876687;29;20406;-71
2022/08/08 00:46:41;;;;;;;;;;;18.00;51.40;;;;;;4879375;29;19928;-70
2022/08/08 00:49:23;;;;;;;;;;;18.10;51.60;;;;;;4875449;29;20023;-70
2022/08/08 00:52:07;;;;;;;;;;;18.00;51.80;;;;;;4858044;29;19923;-71
2022/08/08 00:54:42;;;;;;;;;;;18.00;51.90;;;;;;4875874;29;19951;-71
2022/08/08 00:57:26;;;;;;;;;;;17.90;52.10;;;;;;4876088;29;19988;-71
2022/08/08 01:00:02;;;;;;;;;;;17.90;52.10;;;;;;4870158;29;19932;-70
2022/08/08 01:02:50;;;;;;;;;;;17.90;52.00;;;;;;4875564;29;20025;-71
2022/08/08 01:05:35;;;;;;;;;;;17.90;52.00;;;;;;4876322;29;19930;-71
2022/08/08 01:08:18;;;;;;;;;;;17.80;52.30;;;;;;4874903;29;20309;-70
2022/08/08 01:11:15;;;;;;;;;;;17.80;52.60;;;;;;4861204;29;19928;-72
2022/08/08 01:14:16;;;;;;;;;;;17.80;52.60;;;;;;4803564;29;20017;-71
2022/08/08 01:17:00;;;;;;;;;;;17.80;52.70;;;;;;4863476;29;19927;-72
2022/08/08 01:19:39;;;;;;;;;;;17.80;52.90;;;;;;4876120;29;19931;-72
2022/08/08 01:22:35;;;;;;;;;;;17.80;52.90;;;;;;4870938;29;19924;-72
2022/08/08 01:25:20;;;;;;;;;;;17.70;52.90;;;;;;4874808;29;20401;-72
2022/08/08 01:27:55;;;;;;;;;;;17.70;53.00;;;;;;4873565;29;19931;-70
2022/08/08 01:30:36;;;;;;;;;;;17.70;53.10;;;;;;4876932;29;19934;-72
2022/08/08 01:33:27;;;;;;;;;;;17.60;53.10;;;;;;4864012;29;20397;-70
2022/08/08 01:36:07;;;;;;;;;;;17.60;53.20;;;;;;4872642;29;19931;-71
2022/08/08 01:39:09;;;;;;;;;;;17.50;53.10;;;;;;4870372;29;19931;-71
2022/08/08 01:41:44;;;;;;;;;;;17.50;53.20;;;;;;4885196;29;20311;-71
2022/08/08 01:44:25;;;;;;;;;;;17.40;53.40;;;;;;4868949;29;19971;-72
2022/08/08 01:46:55;;;;;;;;;;;17.40;53.60;;;;;;4883460;29;19946;-71
2022/08/08 01:49:36;;;;;;;;;;;17.40;53.70;;;;;;4874334;29;19928;-71
2022/08/08 01:52:08;;;;;;;;;;;17.40;53.80;;;;;;4870919;29;20366;-70
2022/08/08 01:54:52;;;;;;;;;;;17.30;53.90;;;;;;4876427;29;20019;-70
2022/08/08 01:57:27;;;;;;;;;;;17.30;54.00;;;;;;4886736;29;19931;-70
2022/08/08 02:00:15;;;;;;;;;;;17.30;54.10;;;;;;4866921;29;19931;-70
2022/08/08 02:02:56;;;;;;;;;;;17.20;54.30;;;;;;4860734;29;19940;-70
2022/08/08 02:05:29;;;;;;;;;;;17.10;54.40;;;;;;4873042;29;20035;-70
2022/08/08 02:08:00;;;;;;;;;;;17.10;54.50;;;;;;4872562;29;19930;-70
2022/08/08 02:10:47;;;;;;;;;;;17.10;54.70;;;;;;4875442;29;19927;-72
2022/08/08 02:13:20;;;;;;;;;;;17.00;55.00;;;;;;4867183;29;19924;-71
2022/08/08 02:15:52;;;;;;;;;;;17.00;55.00;;;;;;4887820;29;19967;-71
2022/08/08 02:18:22;;;;;;;;;;;17.00;55.00;;;;;;4875410;29;19928;-70
2022/08/08 02:23:41;;;;;;;;;;;16.90;55.30;;;;;;4870940;29;19924;-71
2022/08/08 02:26:11;;;;;;;;;;;16.80;55.30;;;;;;4867039;29;19924;-71
2022/08/08 02:28:46;;;;;;;;;;;16.80;55.30;;;;;;4871131;29;19939;-70
2022/08/08 02:31:21;;;;;;;;;;;16.80;55.20;;;;;;4871494;29;19939;-71
2022/08/08 02:33:56;;;;;;;;;;;16.80;55.00;;;;;;4875263;29;20285;-69
2022/08/08 02:36:37;;;;;;;;;;;16.80;55.10;;;;;;4864547;29;19938;-71
2022/08/08 02:39:16;;;;;;;;;;;16.80;55.10;;;;;;4872538;29;19935;-71
2022/08/08 02:42:03;;;;;;;;;;;16.70;55.40;;;;;;4882596;29;19924;-71
2022/08/08 02:44:54;;;;;;;;;;;16.60;55.40;;;;;;4867113;29;19923;-70
2022/08/08 02:47:36;;;;;;;;;;;16.60;55.20;;;;;;4804601;29;20028;-70
2022/08/08 02:50:16;;;;;;;;;;;16.60;55.20;;;;;;4859646;29;20287;-70
2022/08/08 02:53:04;;;;;;;;;;;16.60;55.00;;;;;;4872698;29;19923;-70
2022/08/08 02:55:45;;;;;;;;;;;16.60;54.90;;;;;;4861995;29;19930;-71
2022/08/08 02:58:27;;;;;;;;;;;16.60;54.90;;;;;;4888661;29;19923;-70
2022/08/08 03:01:16;;;;;;;;;;;16.60;55.00;;;;;;4872084;29;19928;-71
2022/08/08 03:03:55;;;;;;;;;;;16.50;55.00;;;;;;4873289;29;20411;-72
2022/08/08 03:06:40;;;;;;;;;;;16.50;55.00;;;;;;4862350;29;19935;-71
2022/08/08 03:09:21;;;;;;;;;;;16.50;55.20;;;;;;4836428;29;19930;-70
2022/08/08 03:12:00;;;;;;;;;;;16.50;55.30;;;;;;4858372;29;19924;-71
2022/08/08 03:14:38;;;;;;;;;;;16.40;55.40;;;;;;4875958;29;19934;-71
2022/08/08 03:17:08;;;;;;;;;;;16.40;55.70;;;;;;4876203;29;20446;-72
2022/08/08 03:19:50;;;;;;;;;;;16.40;55.80;;;;;;4877126;29;19934;-68
2022/08/08 03:22:16;;;;;;;;;;;16.40;55.90;;;;;;4875087;29;20382;-70
2022/08/08 03:24:47;;;;;;;;;;;16.40;55.90;;;;;;4872082;29;19931;-70
2022/08/08 03:27:17;;;;;;;;;;;16.40;56.00;;;;;;4892029;29;19930;-70
2022/08/08 03:29:46;;;;;;;;;;;16.40;56.10;;;;;;4877039;29;19931;-71
2022/08/08 03:35:01;;;;;;;;;;;16.30;56.10;;;;;;4879322;29;20022;-70
2022/08/08 03:37:28;;;;;;;;;;;16.30;56.40;;;;;;4876083;29;20066;-70
2022/08/08 03:40:04;;;;;;;;;;;16.30;56.50;;;;;;4878126;29;19925;-69
2022/08/08 03:42:32;;;;;;;;;;;16.30;56.60;;;;;;4876223;29;20026;-68
2022/08/08 03:45:00;;;;;;;;;;;16.20;56.60;;;;;;4876765;29;19923;-70
2022/08/08 03:47:30;;;;;;;;;;;16.20;56.90;;;;;;4871890;29;20003;-69
2022/08/08 03:49:59;;;;;;;;;;;16.20;56.80;;;;;;4875981;29;19988;-71
2022/08/08 03:52:25;;;;;;;;;;;16.10;56.90;;;;;;4875726;29;19967;-71
2022/08/08 03:54:52;;;;;;;;;;;16.10;57.00;;;;;;4874415;29;20010;-71
2022/08/08 03:57:21;;;;;;;;;;;16.10;57.10;;;;;;4873519;29;19930;-70
2022/08/08 03:59:48;;;;;;;;;;;16.10;57.20;;;;;;4870270;29;19923;-70
2022/08/08 04:02:15;;;;;;;;;;;16.10;57.30;;;;;;4875843;29;20267;-70
2022/08/08 04:04:44;;;;;;;;;;;16.00;57.40;;;;;;4875957;29;19924;-71
2022/08/08 04:07:14;;;;;;;;;;;16.00;57.60;;;;;;4875569;29;19924;-71
2022/08/08 04:09:55;;;;;;;;;;;16.00;57.60;;;;;;4874252;29;19946;-70
2022/08/08 04:12:26;;;;;;;;;;;16.00;57.60;;;;;;4872909;29;19964;-70
2022/08/08 04:14:52;;;;;;;;;;;15.90;57.60;;;;;;4876905;29;19975;-70
2022/08/08 04:17:19;;;;;;;;;;;15.90;57.60;;;;;;4872635;29;19934;-71
2022/08/08 04:19:46;;;;;;;;;;;15.90;57.70;;;;;;4877104;29;20018;-72
2022/08/08 04:22:14;;;;;;;;;;;15.80;58.00;;;;;;4870493;29;19934;-70
2022/08/08 04:24:41;;;;;;;;;;;15.80;58.10;;;;;;4882031;29;19936;-70
2022/08/08 04:27:10;;;;;;;;;;;15.80;58.10;;;;;;4874547;29;20310;-70
2022/08/08 04:29:41;;;;;;;;;;;15.80;58.10;;;;;;4893293;29;20001;-70
2022/08/08 04:32:13;;;;;;;;;;;15.80;58.00;;;;;;4873434;29;20018;-69
2022/08/08 04:34:40;;;;;;;;;;;15.80;58.20;;;;;;4877004;29;19935;-71
2022/08/08 04:37:07;;;;;;;;;;;15.80;58.40;;;;;;4879045;29;19934;-70
2022/08/08 04:39:34;;;;;;;;;;;15.80;58.50;;;;;;4877111;29;19935;-70
2022/08/08 04:42:04;;;;;;;;;;;15.70;58.80;;;;;;4877193;29;19931;-69
2022/08/08 04:44:30;;;;;;;;;;;15.70;58.90;;;;;;4878557;29;19935;-71
2022/08/08 04:46:59;;;;;;;;;;;15.70;59.00;;;;;;4874619;29;20294;-71
2022/08/08 04:49:25;;;;;;;;;;;15.70;59.20;;;;;;4880357;29;19924;-70
2022/08/08 04:51:53;;;;;;;;;;;15.70;59.30;;;;;;4872686;29;19931;-70
2022/08/08 04:54:20;;;;;;;;;;;15.70;59.40;;;;;;4873331;29;19983;-71
2022/08/08 04:56:47;;;;;;;;;;;15.70;59.60;;;;;;4866571;29;19928;-71
2022/08/08 04:59:14;;;;;;;;;;;15.70;59.70;;;;;;4888154;29;20332;-70
2022/08/08 05:01:40;;;;;;;;;;;15.70;59.90;;;;;;4870590;29;20015;-71
2022/08/08 05:04:08;;;;;;;;;;;15.70;59.80;;;;;;4876210;29;19931;-71
2022/08/08 05:06:39;;;;;;;;;;;15.70;59.80;;;;;;4868258;29;19931;-71
2022/08/08 05:09:07;;;;;;;;;;;15.70;59.80;;;;;;4867434;29;19924;-70
2022/08/08 05:11:37;;;;;;;;;;;15.80;59.70;;;;;;4872817;29;19935;-69
2022/08/08 05:14:04;;;;;;;;;;;15.90;59.60;;;;;;4873386;29;19931;-71
2022/08/08 05:16:33;;;;;;;;;;;15.80;59.60;;;;;;4876510;29;19935;-70
2022/08/08 05:18:59;;;;;;;;;;;15.90;59.50;;;;;;4871402;29;19973;-71
2022/08/08 05:21:28;;;;;;;;;;;15.90;59.40;;;;;;4871374;29;20436;-71
2022/08/08 05:23:55;;;;;;;;;;;15.90;59.30;;;;;;4867387;29;19924;-71
2022/08/08 05:26:21;;;;;;;;;;;15.90;59.40;;;;;;4872777;29;19924;-69
2022/08/08 05:28:48;;;;;;;;;;;15.90;59.50;;;;;;4887041;29;19971;-71
2022/08/08 05:31:15;;;;;;;;;;;15.90;59.30;;;;;;4874001;29;19923;-69
2022/08/08 05:33:43;;;;;;;;;;;15.90;59.20;;;;;;4865176;29;19923;-69
2022/08/08 05:36:11;;;;;;;;;;;15.90;59.10;;;;;;4887506;29;21899;-70
2022/08/08 05:38:45;;;;;;;;;;;16.00;59.10;;;;;;4862970;29;19974;-70
2022/08/08 05:41:13;;;;;;;;;;;16.00;59.10;;;;;;4874515;29;19955;-71
2022/08/08 05:43:45;;;;;;;;;;;16.00;59.00;;;;;;4876566;29;19930;-69
2022/08/08 05:46:12;;;;;;;;;;;16.10;58.50;;;;;;4875371;29;20282;-70
2022/08/08 05:48:41;;;;;;;;;;;16.20;58.40;;;;;;4874287;29;20374;-70
2022/08/08 05:51:09;;;;;;;;;;;16.20;58.50;;;;;;4871042;29;19928;-70
2022/08/08 05:53:37;;;;;;;;;;;16.20;58.50;;;;;;4867664;29;19932;-70
2022/08/08 05:56:07;;;;;;;;;;;16.30;58.50;;;;;;4870657;29;19928;-70
2022/08/08 05:58:33;;;;;;;;;;;16.40;58.50;;;;;;4873576;29;19934;-70
2022/08/08 06:01:01;;;;;;;;;;;16.40;58.30;;;;;;4869634;29;20067;-70
2022/08/08 06:03:28;;;;;;;;;;;16.50;58.40;;;;;;4874388;29;20379;-69
2022/08/08 06:05:58;;;;;;;;;;;16.50;58.40;;;;;;4871353;29;19954;-71
2022/08/08 06:08:26;;;;;;;;;;;16.50;58.40;;;;;;4874540;29;19934;-71
2022/08/08 06:10:55;;;;;;;;;;;16.60;58.10;;;;;;4876491;29;19935;-71
2022/08/08 06:13:25;;;;;;;;;;;16.60;57.70;;;;;;4870092;29;20367;-70
2022/08/08 06:15:54;;;;;;;;;;;16.70;57.70;;;;;;4873615;29;19923;-71
2022/08/08 06:18:41;;;;;;;;;;;16.70;57.70;;;;;;4873192;29;20014;-71
2022/08/08 06:21:09;;;;;;;;;;;16.80;57.70;;;;;;4884096;29;19964;-70
2022/08/08 06:23:36;;;;;;;;;;;16.80;57.60;;;;;;4873340;29;19935;-70
2022/08/08 06:26:03;;;;;;;;;;;16.80;57.70;;;;;;4870423;29;20007;-70
2022/08/08 06:28:32;;;;;;;;;;;16.90;57.30;;;;;;4872430;29;19942;-70
2022/08/08 06:31:00;;;;;;;;;;;17.00;57.30;;;;;;4869969;29;19974;-72
2022/08/08 06:33:35;;;;;;;;;;;17.10;56.60;;;;;;4871125;29;19932;-70
2022/08/08 06:36:02;;;;;;;;;;;17.20;56.50;;;;;;4876322;29;19930;-70
2022/08/08 06:38:31;;;;;;;;;;;17.30;56.10;;;;;;4868313;29;19950;-71
2022/08/08 06:41:04;;;;;;;;;;;17.50;55.90;;;;;;4873613;29;19931;-71
2022/08/08 06:43:33;;;;;;;;;;;17.60;55.30;;;;;;4871890;29;19931;-70
2022/08/08 06:46:03;;;;;;;;;;;17.70;55.60;;;;;;4868332;29;20359;-70
2022/08/08 06:48:30;;;;;;;;;;;17.80;55.20;;;;;;4863970;29;20310;-72
2022/08/08 06:50:59;;;;;;;;;;;18.00;55.00;;;;;;4872236;29;19932;-69
2022/08/08 06:53:27;;;;;;;;;;;18.10;55.20;;;;;;4873367;29;20379;-71
2022/08/08 06:55:57;;;;;;;;;;;18.20;54.70;;;;;;4874851;29;19959;-71
2022/08/08 06:58:24;;;;;;;;;;;18.30;54.30;;;;;;4866499;29;20386;-70
2022/08/08 07:00:52;;;;;;;;;;;18.50;54.20;;;;;;4871192;29;19924;-71
2022/08/08 07:03:26;;;;;;;;;;;18.60;53.90;;;;;;4867882;29;19959;-71
2022/08/08 07:05:53;;;;;;;;;;;18.80;53.40;;;;;;4876695;29;19935;-70
2022/08/08 07:08:25;;;;;;;;;;;19.00;53.10;;;;;;4874770;29;19954;-70
2022/08/08 07:10:54;;;;;;;;;;;19.10;52.70;;;;;;4876576;29;19924;-69
2022/08/08 07:13:23;;;;;;;;;;;19.30;52.10;;;;;;4889098;29;20014;-70
2022/08/08 07:15:53;;;;;;;;;;;19.50;52.50;;;;;;4869727;29;19923;-71
2022/08/08 07:18:26;;;;;;;;;;;19.60;51.40;;;;;;4878755;29;19963;-71
2022/08/08 07:20:54;;;;;;;;;;;19.80;51.00;;;;;;4865295;29;19924;-70
2022/08/08 07:23:23;;;;;;;;;;;20.00;50.60;;;;;;4873023;29;19924;-73
2022/08/08 07:25:53;;;;;;;;;;;20.10;50.60;;;;;;4859188;29;19964;-71
2022/08/08 07:28:21;;;;;;;;;;;20.30;49.30;;;;;;4872681;29;20034;-71
2022/08/08 07:30:49;;;;;;;;;;;20.50;49.60;;;;;;4870409;29;20002;-70
2022/08/08 07:33:22;;;;;;;;;;;20.60;48.60;;;;;;4875511;29;19938;-69
2022/08/08 07:35:49;;;;;;;;;;;20.90;48.00;;;;;;4876201;29;19970;-71
2022/08/08 07:38:17;;;;;;;;;;;21.00;47.90;;;;;;4876511;29;19930;-70
2022/08/08 07:40:49;;;;;;;;;;;21.10;47.80;;;;;;4869367;29;19999;-71
2022/08/08 07:43:20;;;;;;;;;;;21.30;47.60;;;;;;4867700;29;19963;-71
2022/08/08 07:45:50;;;;;;;;;;;21.40;47.20;;;;;;4872931;29;20029;-71
2022/08/08 07:48:19;;;;;;;;;;;21.60;47.20;;;;;;4875224;29;19931;-73
2022/08/08 07:50:46;;;;;;;;;;;21.60;46.80;;;;;;4876040;29;20405;-71
2022/08/08 07:53:18;;;;;;;;;;;21.80;46.40;;;;;;4877666;29;19924;-72
2022/08/08 07:55:47;;;;;;;;;;;22.10;45.20;;;;;;4877058;29;19928;-71
2022/08/08 07:58:19;;;;;;;;;;;22.20;44.70;;;;;;4884147;29;20141;-70
2022/08/08 08:00:49;;;;;;;;;;;22.40;44.40;;;;;;4862972;29;20826;-70
2022/08/08 08:03:23;;;;;;;;;;;22.40;45.20;;;;;;4871241;29;19955;-71
2022/08/08 08:05:53;;;;;;;;;;;22.60;44.20;;;;;;4875988;29;20359;-71
2022/08/08 08:08:26;;;;;;;;;;;22.80;43.70;;;;;;4867006;29;20355;-70
2022/08/08 08:10:55;;;;;;;;;;;22.80;44.20;;;;;;4867854;29;24217;-72
2022/08/08 08:13:25;;;;;;;;;;;22.90;43.70;;;;;;4876061;29;19986;-69
2022/08/08 08:15:59;;;;;;;;;;;23.10;43.30;;;;;;4867065;29;19959;-71
2022/08/08 08:18:29;;;;;;;;;;;23.20;43.10;;;;;;4870283;29;19938;-70
2022/08/08 08:20:56;;;;;;;;;;;23.30;43.10;;;;;;4876600;29;19931;-70
2022/08/08 08:23:24;;;;;;;;;;;23.40;42.70;;;;;;4872399;29;19930;-71
2022/08/08 08:25:51;;;;;;;;;;;23.50;43.00;;;;;;4872172;29;19924;-73
2022/08/08 08:28:18;;;;;;;;;;;23.60;42.50;;;;;;4873303;29;19967;-70
2022/08/08 08:30:45;;;;;;;;;;;23.70;41.80;;;;;;4871836;29;20018;-71
2022/08/08 08:33:12;;;;;;;;;;;23.90;41.60;;;;;;4868287;29;20377;-71
2022/08/08 08:35:40;;;;;;;;;;;24.00;40.80;;;;;;4874526;29;19946;-71
2022/08/08 08:38:07;;;;;;;;;;;24.10;41.10;;;;;;4876703;29;19928;-70
2022/08/08 08:40:35;;;;;;;;;;;24.10;41.00;;;;;;4867345;29;19928;-70
2022/08/08 08:43:03;;;;;;;;;;;24.30;40.90;;;;;;4879761;29;20022;-69
2022/08/08 08:45:31;;;;;;;;;;;24.50;40.20;;;;;;4874059;29;20332;-70
2022/08/08 08:48:01;;;;;;;;;;;24.50;40.10;;;;;;4870481;29;20435;-69
2022/08/08 08:50:35;;;;;;;;;;;24.60;39.80;;;;;;4867833;29;19924;-69
2022/08/08 08:53:07;;;;;;;;;;;24.60;40.10;;;;;;4873861;29;19923;-70
2022/08/08 08:55:34;;;;;;;;;;;24.70;39.90;;;;;;4871126;29;19932;-70
2022/08/08 08:58:02;;;;;;;;;;;24.90;40.10;;;;;;4865228;29;20071;-70
2022/08/08 09:00:29;;;;;;;;;;;25.00;40.30;;;;;;4872970;29;19966;-67
2022/08/08 09:02:58;;;;;;;;;;;25.10;40.00;;;;;;4871949;29;19924;-71
2022/08/08 09:05:26;;;;;;;;;;;25.20;39.90;;;;;;4867542;29;19923;-70
2022/08/08 09:07:53;;;;;;;;;;;25.30;39.30;;;;;;4869739;29;19934;-69
2022/08/08 09:10:23;;;;;;;;;;;25.40;39.30;;;;;;4887062;29;20014;-69
2022/08/08 09:12:50;;;;;;;;;;;25.50;39.60;;;;;;4866280;29;20370;-69
2022/08/08 09:15:19;;;;;;;;;;;25.60;39.60;;;;;;4868898;29;19925;-70
2022/08/08 09:17:47;;;;;;;;;;;25.70;39.00;;;;;;4861939;29;19924;-70
2022/08/08 09:20:17;;;;;;;;;;;25.80;38.90;;;;;;4887804;29;20346;-71
2022/08/08 09:22:44;;;;;;;;;;;25.90;38.60;;;;;;4872501;29;20026;-69
2022/08/08 09:25:11;;;;;;;;;;;26.10;38.10;;;;;;4867141;29;19923;-70
2022/08/08 09:27:41;;;;;;;;;;;26.10;37.80;;;;;;4875605;29;20035;-70
2022/08/08 09:30:09;;;;;;;;;;;26.30;37.50;;;;;;4873477;29;19934;-70
2022/08/08 09:32:39;;;;;;;;;;;26.40;37.20;;;;;;4866200;29;19934;-69
2022/08/08 09:35:10;;;;;;;;;;;26.50;36.30;;;;;;4862401;29;20389;-70
2022/08/08 09:37:43;;;;;;;;;;;26.50;36.20;;;;;;4870986;29;20335;-70
2022/08/08 09:40:11;;;;;;;;;;;26.60;36.30;;;;;;4867097;29;20386;-69
2022/08/08 09:42:41;;;;;;;;;;;26.70;35.90;;;;;;4873825;29;19923;-71
2022/08/08 09:45:10;;;;;;;;;;;26.80;35.90;;;;;;4876154;29;19924;-69
2022/08/08 09:47:37;;;;;;;;;;;26.90;35.90;;;;;;4876251;29;19923;-71
2022/08/08 09:50:06;;;;;;;;;;;27.00;35.10;;;;;;4863956;29;19931;-70
2022/08/08 09:52:34;;;;;;;;;;;27.00;35.20;;;;;;4872520;29;19972;-69
2022/08/08 09:55:01;;;;;;;;;;;27.10;34.90;;;;;;4874234;29;20473;-71
2022/08/08 09:57:31;;;;;;;;;;;27.30;34.80;;;;;;4874103;29;19932;-71
2022/08/08 09:59:59;;;;;;;;;;;27.30;34.60;;;;;;4869588;29;19938;-70
2022/08/08 10:02:33;;;;;;;;;;;27.50;34.30;;;;;;4867453;29;19923;-72
2022/08/08 10:05:02;;;;;;;;;;;27.50;34.30;;;;;;4869585;29;20010;-69
2022/08/08 10:07:28;;;;;;;;;;;27.60;33.90;;;;;;4874520;29;19931;-70
2022/08/08 10:09:55;;;;;;;;;;;27.60;33.60;;;;;;4875668;29;19931;-68
2022/08/08 10:12:30;;;;;;;;;;;27.80;33.30;;;;;;4876700;29;19930;-70
2022/08/08 10:14:59;;;;;;;;;;;27.80;33.30;;;;;;4872910;29;19924;-71
2022/08/08 10:17:27;;;;;;;;;;;28.00;33.30;;;;;;4866606;29;19950;-69
2022/08/08 10:19:57;;;;;;;;;;;28.10;33.00;;;;;;4873229;29;19931;-67
2022/08/08 10:22:23;;;;;;;;;;;28.10;33.10;;;;;;4873837;29;19924;-69
2022/08/08 10:24:53;;;;;;;;;;;28.10;33.00;;;;;;4873734;29;20228;-69
2022/08/08 10:27:22;;;;;;;;;;;28.30;32.40;;;;;;4874298;29;19924;-70
2022/08/08 10:29:53;;;;;;;;;;;28.30;32.60;;;;;;4870660;29;19934;-70
2022/08/08 10:32:34;;;;;;;;;;;28.30;33.00;;;;;;4869210;29;19934;-70
2022/08/08 10:35:04;;;;;;;;;;;28.30;33.20;;;;;;4868098;29;19928;-68
2022/08/08 10:37:31;;;;;;;;;;;28.40;33.20;;;;;;4872144;29;19928;-69
2022/08/08 10:39:59;;;;;;;;;;;28.40;33.00;;;;;;4875362;29;19923;-69
2022/08/08 10:42:32;;;;;;;;;;;28.60;31.90;;;;;;4875614;29;19932;-68
2022/08/08 10:45:00;;;;;;;;;;;28.70;31.60;;;;;;4875426;29;19928;-69
2022/08/08 10:47:27;;;;;;;;;;;28.80;31.90;;;;;;4876644;29;19967;-69
2022/08/08 10:49:55;;;;;;;;;;;28.80;32.20;;;;;;4869178;29;19951;-70
2022/08/08 10:52:24;;;;;;;;;;;28.70;32.40;;;;;;4873177;29;19939;-68
2022/08/08 10:54:54;;;;;;;;;;;28.80;32.50;;;;;;4871493;29;19938;-69
2022/08/08 10:57:21;;;;;;;;;;;28.70;32.90;;;;;;4876944;29;20463;-68
2022/08/08 10:59:54;;;;;;;;;;;28.60;32.70;;;;;;4872455;29;19924;-70
2022/08/08 11:02:25;;;;;;;;;;;28.60;33.00;;;;;;4875629;29;19927;-70
2022/08/08 11:04:51;;;;;;;;;;;28.60;32.80;;;;;;4876093;29;19971;-70
2022/08/08 11:07:26;;;;;;;;;;;28.60;32.80;;;;;;4874596;29;19923;-70
2022/08/08 11:09:53;;;;;;;;;;;28.70;32.40;;;;;;4878502;29;19927;-69
2022/08/08 11:12:20;;;;;;;;;;;28.80;32.10;;;;;;4867810;29;19928;-70
2022/08/08 11:14:51;;;;;;;;;;;29.00;32.00;;;;;;4875776;29;19923;-70
2022/08/08 11:17:20;;;;;;;;;;;29.00;32.40;;;;;;4876595;29;19979;-70
2022/08/08 11:19:47;;;;;;;;;;;28.90;32.20;;;;;;4876491;29;19971;-70
2022/08/08 11:22:15;;;;;;;;;;;29.00;31.80;;;;;;4875312;29;20019;-70
2022/08/08 11:24:46;;;;;;;;;;;29.10;31.20;;;;;;4868586;29;19927;-70
2022/08/08 11:27:13;;;;;;;;;;;29.20;30.70;;;;;;4874833;29;19942;-68
2022/08/08 11:29:41;;;;;;;;;;;29.30;30.60;;;;;;4875948;29;19928;-70
2022/08/08 11:32:09;;;;;;;;;;;29.30;30.40;;;;;;4876203;29;20370;-68
2022/08/08 11:34:37;;;;;;;;;;;29.30;31.20;;;;;;4877710;29;19924;-70
2022/08/08 11:37:05;;;;;;;;;;;29.30;31.40;;;;;;4868817;29;19928;-70
2022/08/08 11:39:33;;;;;;;;;;;29.30;31.30;;;;;;4870742;29;19924;-69
2022/08/08 11:42:01;;;;;;;;;;;29.30;31.30;;;;;;4875601;29;19950;-69
2022/08/08 11:44:28;;;;;;;;;;;29.40;31.40;;;;;;4876334;29;19927;-69
2022/08/08 11:46:56;;;;;;;;;;;29.50;31.00;;;;;;4876132;29;19963;-69
2022/08/08 11:49:24;;;;;;;;;;;29.50;31.00;;;;;;4877723;29;19979;-68
2022/08/08 11:51:52;;;;;;;;;;;29.50;30.80;;;;;;4879431;29;19934;-70
2022/08/08 11:54:29;;;;;;;;;;;29.60;30.80;;;;;;4872117;29;20178;-69
2022/08/08 11:56:56;;;;;;;;;;;29.60;30.90;;;;;;4873525;29;20339;-69
2022/08/08 11:59:31;;;;;;;;;;;29.60;31.20;;;;;;4876244;29;19924;-69
2022/08/08 12:02:03;;;;;;;;;;;29.60;31.10;;;;;;4871310;29;20282;-69
2022/08/08 12:04:30;;;;;;;;;;;29.60;30.90;;;;;;4871645;29;19927;-67
2022/08/08 12:07:02;;;;;;;;;;;29.60;30.70;;;;;;4874145;29;19935;-68
2022/08/08 12:09:29;;;;;;;;;;;29.70;30.10;;;;;;4875246;29;19924;-69
2022/08/08 12:11:55;;;;;;;;;;;29.70;29.90;;;;;;4871725;29;19970;-67
2022/08/08 12:14:24;;;;;;;;;;;29.70;30.20;;;;;;4873347;29;19975;-68
2022/08/08 12:16:52;;;;;;;;;;;29.80;30.20;;;;;;4871085;29;19924;-70
2022/08/08 12:19:19;;;;;;;;;;;29.70;30.40;;;;;;4873146;29;19936;-69
2022/08/08 12:21:46;;;;;;;;;;;29.80;29.80;;;;;;4867403;29;19931;-69
2022/08/08 12:24:13;;;;;;;;;;;29.80;29.30;;;;;;4876158;29;20598;-69
2022/08/08 12:26:41;;;;;;;;;;;29.80;29.70;;;;;;4872578;29;20441;-67
2022/08/08 12:29:21;;;;;;;;;;;29.70;30.00;;;;;;4872541;29;20259;-70
2022/08/08 12:32:00;;;;;;;;;;;29.70;30.50;;;;;;4873912;29;19927;-69
2022/08/08 12:34:34;;;;;;;;;;;29.70;30.90;;;;;;4875452;29;19924;-68
2022/08/08 12:37:04;;;;;;;;;;;29.70;30.10;;;;;;4876332;29;19930;-69
2022/08/08 12:39:31;;;;;;;;;;;29.70;30.20;;;;;;4863708;29;20318;-69
2022/08/08 12:41:57;;;;;;;;;;;29.70;30.40;;;;;;4873892;29;19932;-70
2022/08/08 12:44:26;;;;;;;;;;;29.80;30.10;;;;;;4873044;29;20287;-68
2022/08/08 12:46:56;;;;;;;;;;;29.80;30.10;;;;;;4874215;29;20310;-69
2022/08/08 12:49:26;;;;;;;;;;;29.80;30.10;;;;;;4876846;29;19975;-68
2022/08/08 12:51:53;;;;;;;;;;;29.60;31.90;;;;;;4875398;29;20352;-69
2022/08/08 12:54:21;;;;;;;;;;;29.50;31.10;;;;;;4868783;29;20382;-69
2022/08/08 12:56:48;;;;;;;;;;;29.60;30.70;;;;;;4875316;29;19934;-68
2022/08/08 12:59:15;;;;;;;;;;;29.50;30.60;;;;;;4872042;29;19979;-69
2022/08/08 13:01:49;;;;;;;;;;;29.50;30.60;;;;;;4870846;29;20382;-70
2022/08/08 13:04:18;;;;;;;;;;;29.50;30.50;;;;;;4867611;29;19934;-68
2022/08/08 13:06:56;;;;;;;;;;;29.60;30.60;;;;;;4876819;29;19946;-68
2022/08/08 13:09:29;;;;;;;;;;;29.60;30.20;;;;;;4878072;29;19924;-68
2022/08/08 13:11:56;;;;;;;;;;;29.60;29.90;;;;;;4877499;29;19931;-69
2022/08/08 13:14:35;;;;;;;;;;;29.80;29.50;;;;;;4876565;29;19962;-69
2022/08/08 13:17:02;;;;;;;;;;;29.80;29.90;;;;;;4869886;29;20464;-67
2022/08/08 13:19:30;;;;;;;;;;;29.80;29.50;;;;;;4872682;29;19930;-67
2022/08/08 13:21:57;;;;;;;;;;;29.70;29.30;;;;;;4871918;29;19923;-69
2022/08/08 13:24:24;;;;;;;;;;;29.50;30.60;;;;;;4877501;29;19927;-68
2022/08/08 13:26:59;;;;;;;;;;;29.50;29.30;;;;;;4877640;29;19927;-69
2022/08/08 13:29:26;;;;;;;;;;;29.40;30.50;;;;;;4869778;29;19927;-69
2022/08/08 13:31:52;;;;;;;;;;;29.30;30.50;;;;;;4875309;29;19950;-69
2022/08/08 13:34:20;;;;;;;;;;;29.30;30.20;;;;;;4871003;29;19924;-70
2022/08/08 13:36:48;;;;;;;;;;;29.30;29.60;;;;;;4873406;29;19930;-69
2022/08/08 13:39:15;;;;;;;;;;;29.20;30.80;;;;;;4873646;29;19924;-69
2022/08/08 13:41:42;;;;;;;;;;;29.20;29.40;;;;;;4868439;29;19995;-70
2022/08/08 13:44:09;;;;;;;;;;;29.30;29.30;;;;;;4868548;29;19931;-67
2022/08/08 13:46:36;;;;;;;;;;;29.30;29.30;;;;;;4875563;29;19931;-69
2022/08/08 13:49:03;;;;;;;;;;;29.20;29.60;;;;;;4876033;29;19962;-67
2022/08/08 13:51:30;;;;;;;;;;;29.10;30.50;;;;;;4875622;29;19973;-68
2022/08/08 13:53:58;;;;;;;;;;;29.10;30.20;;;;;;4875260;29;19930;-67
2022/08/08 13:56:29;;;;;;;;;;;29.10;30.00;;;;;;4873115;29;19923;-69
2022/08/08 13:58:56;;;;;;;;;;;29.10;30.20;;;;;;4874706;29;19924;-67
2022/08/08 14:01:26;;;;;;;;;;;29.10;30.00;;;;;;4863855;29;19924;-67
2022/08/08 14:03:53;;;;;;;;;;;29.00;30.60;;;;;;4870320;29;20459;-68
2022/08/08 14:06:20;;;;;;;;;;;29.00;30.00;;;;;;4868921;29;19928;-68
2022/08/08 14:08:47;;;;;;;;;;;29.10;29.40;;;;;;4872456;29;19932;-68
2022/08/08 14:11:17;;;;;;;;;;;29.10;29.60;;;;;;4871582;29;19924;-66
2022/08/08 14:13:44;;;;;;;;;;;29.10;29.30;;;;;;4876266;29;19939;-68
2022/08/08 14:16:11;;;;;;;;;;;29.00;29.90;;;;;;4865657;29;19979;-67
2022/08/08 14:18:48;;;;;;;;;;;29.00;29.80;;;;;;4874256;29;20395;-68
2022/08/08 14:21:15;;;;;;;;;;;28.90;29.40;;;;;;4876381;29;20397;-68
2022/08/08 14:23:44;;;;;;;;;;;28.90;29.80;;;;;;4875705;29;19923;-67
2022/08/08 14:26:20;;;;;;;;;;;28.90;30.00;;;;;;4862976;29;20421;-66
2022/08/08 14:28:51;;;;;;;;;;;28.80;29.90;;;;;;4871444;29;19924;-67
2022/08/08 14:31:18;;;;;;;;;;;28.80;29.80;;;;;;4872458;29;19931;-68
2022/08/08 14:33:50;;;;;;;;;;;28.80;29.50;;;;;;4875739;29;19928;-68
2022/08/08 14:36:17;;;;;;;;;;;28.80;30.20;;;;;;4875940;29;19974;-67
2022/08/08 14:38:44;;;;;;;;;;;28.80;29.70;;;;;;4875122;29;19924;-68
2022/08/08 14:41:11;;;;;;;;;;;28.80;29.70;;;;;;4875911;29;20416;-68
2022/08/08 14:43:46;;;;;;;;;;;28.80;29.90;;;;;;4876106;29;20022;-67